Time;durP1;ratioP1;P1;durP2;ratioP2;P2;SDS_P1;SDS_P2;PMS_P1;PMS_P2;Temp;Humidity;BMP_temperature;BMP_pressure;BME280_temperature;BME280_humidity;BME280_pressure;Samples;Min_cycle;Max_cycle;Signal;HPM_P1;HPM_P2
2023/07/16 00:01:56;;;;;;;3.67;1.95;;;18.00;99.90;;;-144.05;79.86;56857.34;5066200;28;20036;-81
2023/07/16 00:04:22;;;;;;;6.40;1.80;;;18.10;99.90;;;-144.05;79.41;56880.69;5083805;28;20021;-80
2023/07/16 00:06:50;;;;;;;5.82;1.90;;;18.10;99.90;;;-144.05;79.02;56878.56;5085318;28;20032;-78
2023/07/16 00:09:16;;;;;;;2.92;1.40;;;18.20;99.90;;;-144.05;78.61;56882.81;5066657;28;20088;-80
2023/07/16 00:11:42;;;;;;;4.63;1.92;;;18.30;99.90;;;-144.05;77.95;56893.44;5066289;28;20545;-80
2023/07/16 00:14:11;;;;;;;3.80;1.40;;;18.40;99.90;;;-144.05;77.54;56870.06;5082891;28;20051;-80
2023/07/16 00:16:38;;;;;;;4.53;1.80;;;18.40;99.90;;;-144.05;77.50;56899.81;5067310;28;20117;-82
2023/07/16 00:19:04;;;;;;;3.40;1.70;;;18.40;99.90;;;-144.05;77.11;56878.56;5085176;28;20056;-80
2023/07/16 00:21:30;;;;;;;4.90;1.92;;;18.40;99.90;;;-144.05;77.27;56895.56;5084792;28;20028;-79
2023/07/16 00:23:56;;;;;;;5.25;1.63;;;18.40;99.90;;;-144.05;77.73;56895.56;5087136;28;20025;-81
2023/07/16 00:26:22;;;;;;;5.00;1.80;;;18.30;99.90;;;-144.05;77.46;56906.19;5080906;28;20416;-81
2023/07/16 00:28:48;;;;;;;5.90;1.85;;;18.40;99.90;;;-144.05;77.34;56882.81;5065867;28;20500;-80
2023/07/16 00:31:14;;;;;;;3.65;2.17;;;18.30;99.90;;;-144.05;77.96;56878.56;5067792;28;20032;-81
2023/07/16 00:33:40;;;;;;;6.45;1.83;;;18.40;99.90;;;-144.05;77.63;56870.06;5067642;28;20036;-82
2023/07/16 00:36:05;;;;;;;2.58;1.45;;;18.40;99.90;;;-144.05;77.34;56887.06;5066878;28;20034;-79
2023/07/16 00:38:31;;;;;;;4.15;1.50;;;18.40;99.90;;;-144.05;77.22;56897.69;5069222;28;20028;-80
2023/07/16 00:40:57;;;;;;;3.42;1.70;;;18.40;99.90;;;-144.05;77.61;56904.06;5070094;28;20067;-82
2023/07/16 00:43:23;;;;;;;3.88;1.95;;;18.40;99.90;;;-144.05;78.00;56889.19;5070007;28;20051;-81
2023/07/16 00:45:50;;;;;;;6.40;1.60;;;18.40;99.90;;;-144.05;78.30;56901.94;5071241;28;20033;-80
2023/07/16 00:48:16;;;;;;;4.22;1.90;;;18.30;99.90;;;-144.05;78.47;56874.31;5071812;28;20025;-81
2023/07/16 00:50:42;;;;;;;3.75;2.00;;;18.30;99.90;;;-144.05;78.94;56861.56;5075406;28;20052;-80
2023/07/16 00:53:10;;;;;;;4.38;1.95;;;18.30;99.90;;;-144.05;78.58;56887.06;5072245;28;20028;-81
2023/07/16 00:55:37;;;;;;;5.82;2.05;;;18.30;99.90;;;-144.05;78.59;56878.56;5061222;28;20103;-79
2023/07/16 00:58:06;;;;;;;6.40;1.90;;;18.20;99.90;;;-144.05;78.69;56889.19;5058931;28;20142;-80
2023/07/16 01:00:39;;;;;;;5.95;1.80;;;18.10;99.90;;;-144.05;79.41;56884.94;5058015;28;20025;-81
2023/07/16 01:03:12;;;;;;;2.75;1.60;;;18.10;99.90;;;-144.05;78.93;56895.56;5039216;28;20032;-81
2023/07/16 01:05:57;;;;;;;3.55;1.80;;;18.20;99.90;;;-144.05;78.98;56895.56;5055453;28;20112;-79
2023/07/16 01:08:52;;;;;;;4.47;1.83;;;18.30;99.90;;;-144.05;78.16;56876.44;5056911;28;20051;-79
2023/07/16 01:11:19;;;;;;;6.13;1.55;;;18.30;99.90;;;-144.05;77.44;56878.56;5063595;28;20071;-81
2023/07/16 01:13:45;;;;;;;5.22;2.10;;;18.40;99.90;;;-144.05;76.80;56887.06;5066579;28;20048;-80
2023/07/16 01:16:23;;;;;;;4.88;1.70;;;18.40;99.90;;;-144.05;76.37;56912.56;5046869;28;20039;-81
2023/07/16 01:18:50;;;;;;;6.38;1.67;;;18.40;99.90;;;-144.05;76.46;56897.69;5063583;28;20123;-81
2023/07/16 01:21:20;;;;;;;2.17;1.35;;;18.40;99.90;;;-144.05;76.64;56887.06;5062586;28;20480;-79
2023/07/16 01:24:30;;;;;;;7.07;1.70;;;18.40;99.90;;;-144.05;76.29;56887.06;5062357;28;20086;-80
2023/07/16 01:27:27;;;;;;;5.68;2.03;;;18.40;99.90;;;-144.05;76.96;56891.31;5074380;28;20084;-80
2023/07/16 01:30:04;;;;;;;4.95;1.77;;;18.30;99.90;;;-144.05;77.09;56906.19;5080062;28;20032;-79
2023/07/16 01:32:37;;;;;;;4.40;1.73;;;18.20;99.90;;;-144.05;77.08;56880.69;5062990;28;20043;-79
2023/07/16 01:35:06;;;;;;;2.67;1.67;;;18.10;99.90;;;-144.05;77.38;56891.31;5080743;28;20113;-82
2023/07/16 01:37:33;;;;;;;3.75;1.70;;;18.10;99.90;;;-144.05;77.69;56912.56;5079730;28;20033;-81
2023/07/16 01:39:59;;;;;;;4.68;1.80;;;18.10;99.90;;;-144.05;78.08;56910.44;5078262;28;20028;-80
2023/07/16 01:42:24;;;;;;;4.28;1.83;;;18.20;99.90;;;-144.05;78.43;56895.56;5084788;28;20071;-81
2023/07/16 01:44:50;;;;;;;2.67;1.40;;;18.10;99.90;;;-144.05;79.28;56882.81;5065482;28;20021;-81
2023/07/16 01:47:40;;;;;;;4.50;1.73;;;18.10;99.90;;;-144.05;79.49;56859.47;5064665;28;20070;-81
2023/07/16 01:50:07;;;;;;;4.43;1.70;;;18.00;99.90;;;-144.05;79.17;56867.94;5082181;28;20084;-83
2023/07/16 01:52:33;;;;;;;5.93;2.10;;;18.00;99.90;;;-144.05;78.75;56867.94;5078622;28;20117;-81
2023/07/16 01:54:59;;;;;;;5.35;1.95;;;18.00;99.90;;;-144.05;79.15;56878.56;5060293;28;20507;-79
2023/07/16 01:57:24;;;;;;;4.75;2.00;;;18.00;99.90;;;-144.05;78.31;56878.56;5061160;28;20062;-81
2023/07/16 01:59:50;;;;;;;3.25;1.40;;;17.90;99.90;;;-144.05;78.74;56904.06;5059515;28;20029;-80
2023/07/16 02:02:16;;;;;;;4.93;1.85;;;17.90;99.90;;;-144.05;78.00;56893.44;5076272;28;20024;-79
2023/07/16 02:04:42;;;;;;;5.05;1.48;;;17.80;99.90;;;-144.05;77.55;56874.31;5075441;28;20021;-80
2023/07/16 02:07:08;;;;;;;6.88;1.80;;;17.80;99.90;;;-144.05;77.61;56882.81;5074442;28;20420;-80
2023/07/16 02:09:35;;;;;;;3.97;1.60;;;17.70;99.90;;;-144.05;77.33;56874.31;5057719;28;20055;-80
2023/07/16 02:12:01;;;;;;;8.50;2.03;;;17.70;99.90;;;-144.05;77.65;56867.94;5076664;28;20040;-80
2023/07/16 02:14:26;;;;;;;5.40;1.70;;;17.80;99.90;;;-144.05;76.57;56878.56;5081187;28;20024;-79
2023/07/16 02:16:52;;;;;;;5.10;1.48;;;17.70;99.90;;;-144.05;77.10;56895.56;5082709;28;20437;-80
2023/07/16 02:19:18;;;;;;;3.97;1.60;;;17.70;99.90;;;-144.05;76.88;56895.56;5083286;28;20031;-81
2023/07/16 02:21:44;;;;;;;2.13;1.65;;;17.70;99.90;;;-144.05;77.02;56874.31;5083995;28;20032;-81
2023/07/16 02:24:10;;;;;;;3.78;1.63;;;17.70;99.90;;;-144.05;76.35;56889.19;5082579;28;20507;-81
2023/07/16 02:26:36;;;;;;;4.78;1.73;;;17.70;99.90;;;-144.05;77.03;56908.31;5072513;28;20075;-80
2023/07/16 02:29:01;;;;;;;4.53;1.80;;;17.70;99.90;;;-144.05;77.21;56895.56;5040705;28;20520;-79
2023/07/16 02:31:27;;;;;;;6.10;1.83;;;17.70;99.90;;;-144.05;76.97;56884.94;5040939;28;20092;-81
2023/07/16 02:33:53;;;;;;;3.67;1.92;;;17.60;99.90;;;-144.05;76.89;56882.81;5042330;28;20555;-81
2023/07/16 02:36:19;;;;;;;3.15;1.40;;;17.60;99.90;;;-144.05;77.59;56895.56;5058200;28;20037;-81
2023/07/16 02:38:45;;;;;;;6.18;1.77;;;17.60;99.90;;;-144.05;77.69;56897.69;5065078;28;20527;-80
2023/07/16 02:41:10;;;;;;;6.45;2.08;;;17.50;99.90;;;-144.05;78.88;56901.94;5067726;28;20036;-83
2023/07/16 02:43:37;;;;;;;6.68;1.70;;;17.40;99.90;;;-144.05;79.28;56918.94;5065506;28;20036;-80
2023/07/16 02:46:03;;;;;;;3.60;1.70;;;17.40;99.90;;;-144.05;79.18;56889.19;5066825;28;20028;-81
2023/07/16 02:48:28;;;;;;;6.55;1.60;;;17.40;99.90;;;-144.05;79.70;56874.31;5062352;28;20112;-80
2023/07/16 02:50:54;;;;;;;4.07;1.88;;;17.40;99.90;;;-144.05;79.60;56891.31;5060959;28;20098;-80
2023/07/16 02:53:20;;;;;;;5.78;2.13;;;17.50;99.90;;;-144.05;80.30;56906.19;5061363;28;20039;-80
2023/07/16 02:55:46;;;;;;;6.10;2.17;;;17.50;99.90;;;-144.05;80.39;56865.81;5059806;28;20052;-80
2023/07/16 02:58:12;;;;;;;7.88;2.33;;;17.50;99.90;;;-144.05;80.86;56878.56;5042536;28;20032;-83
2023/07/16 03:00:38;;;;;;;8.07;2.10;;;17.50;99.90;;;-144.05;80.92;56880.69;5060977;28;20021;-81
2023/07/16 03:03:04;;;;;;;3.47;2.03;;;17.40;99.90;;;-144.05;81.47;56887.06;5060580;28;20033;-82
2023/07/16 03:05:30;;;;;;;6.28;2.28;;;17.40;99.90;;;-144.05;81.11;56889.19;5058031;28;20017;-80
2023/07/16 03:07:56;;;;;;;4.20;1.70;;;17.40;99.90;;;-144.05;80.08;56899.81;5056585;28;20067;-81
2023/07/16 03:10:23;;;;;;;7.28;2.15;;;17.50;99.90;;;-144.05;79.86;56897.69;5055832;28;20025;-79
2023/07/16 03:12:49;;;;;;;5.78;2.10;;;17.50;99.90;;;-144.05;79.47;56870.06;5057660;28;20128;-81
2023/07/16 03:15:15;;;;;;;6.32;3.10;;;17.60;99.90;;;-144.05;79.24;56880.69;5042776;28;20115;-81
2023/07/16 03:17:40;;;;;;;5.70;1.85;;;17.70;99.90;;;-144.05;78.64;56880.69;5060580;28;20021;-81
2023/07/16 03:20:08;;;;;;;6.18;2.25;;;17.70;99.90;;;-144.05;77.96;56884.94;5043160;28;20116;-80
2023/07/16 03:22:34;;;;;;;4.03;1.60;;;17.80;99.90;;;-144.05;77.91;56884.94;5058266;28;20231;-79
2023/07/16 03:25:00;;;;;;;5.43;1.75;;;17.80;99.90;;;-144.05;77.52;56872.19;5057985;28;20083;-80
2023/07/16 03:27:25;;;;;;;4.32;1.90;;;17.80;99.90;;;-144.05;76.64;56855.22;5072352;28;20062;-80
2023/07/16 03:29:51;;;;;;;5.55;2.08;;;17.90;99.90;;;-144.05;76.48;56895.56;5077898;28;20028;-79
2023/07/16 03:32:17;;;;;;;5.25;1.73;;;17.90;99.90;;;-144.05;75.75;56908.31;5076812;28;20024;-80
2023/07/16 03:34:43;;;;;;;5.22;1.73;;;17.90;99.90;;;-144.05;76.00;56901.94;5059243;28;20040;-80
2023/07/16 03:37:09;;;;;;;3.90;1.85;;;17.90;99.90;;;-144.05;74.92;56884.94;5059263;28;20059;-80
2023/07/16 03:39:34;;;;;;;4.82;1.58;;;17.80;99.90;;;-144.05;73.99;56908.31;5077304;28;20047;-79
2023/07/16 03:42:00;;;;;;;3.97;1.55;;;17.90;99.90;;;-144.05;73.43;56870.06;5078370;28;20491;-78
2023/07/16 03:44:26;;;;;;;4.60;1.45;;;17.80;99.90;;;-144.05;73.54;56895.56;5060174;28;20364;-79
2023/07/16 03:46:52;;;;;;;4.05;1.63;;;17.90;99.90;;;-144.05;72.36;56887.06;5077125;28;20507;-78
2023/07/16 03:49:18;;;;;;;6.95;1.75;;;17.80;99.90;;;-144.05;72.75;56889.19;5079168;28;20054;-79
2023/07/16 03:51:44;;;;;;;6.07;2.15;;;17.80;99.90;;;-144.05;72.15;56895.56;5078150;28;20066;-78
2023/07/16 03:54:09;;;;;;;4.63;1.60;;;17.70;99.90;;;-144.05;71.67;56901.94;5078564;28;20029;-80
2023/07/16 03:56:35;;;;;;;6.78;1.95;;;17.80;99.90;;;-144.05;71.47;56889.19;5079655;28;20391;-80
2023/07/16 03:59:01;;;;;;;6.15;1.77;;;17.70;99.90;;;-144.05;71.52;56884.94;5078240;28;20033;-80
2023/07/16 04:01:27;;;;;;;7.50;1.92;;;17.70;99.90;;;-144.05;70.97;56895.56;5059724;28;20036;-79
2023/07/16 04:03:53;;;;;;;6.57;1.88;;;17.70;99.90;;;-144.05;70.43;56910.44;5059912;28;20056;-81
2023/07/16 04:06:18;;;;;;;4.38;2.00;;;17.70;99.90;;;-144.05;69.11;56893.44;5077727;28;20176;-81
2023/07/16 04:08:44;;;;;;;5.10;1.75;;;17.70;99.90;;;-144.05;68.33;56906.19;5058838;28;20086;-80
2023/07/16 04:11:10;;;;;;;4.55;2.15;;;17.70;99.90;;;-144.05;67.47;56895.56;5077612;28;20025;-79
2023/07/16 04:13:36;;;;;;;4.50;1.83;;;17.70;99.90;;;-144.05;67.83;56887.06;5059209;28;20127;-78
2023/07/16 04:16:02;;;;;;;7.47;2.08;;;17.60;99.90;;;-144.05;67.66;56895.56;5077262;28;20090;-80
2023/07/16 04:18:28;;;;;;;7.35;2.40;;;17.60;99.90;;;-144.05;67.51;56889.19;5058250;28;20032;-80
2023/07/16 04:20:54;;;;;;;9.50;2.40;;;17.50;99.90;;;-144.05;66.92;56893.44;5057722;28;20107;-79
2023/07/16 04:23:20;;;;;;;9.00;2.20;;;17.50;99.90;;;-144.05;66.85;56904.06;5057945;28;20484;-79
2023/07/16 04:25:46;;;;;;;4.25;1.90;;;17.50;99.90;;;-144.05;66.66;56910.44;5055233;28;20075;-80
2023/07/16 04:28:12;;;;;;;5.65;2.20;;;17.50;99.90;;;-144.05;66.55;56916.81;5055996;28;20025;-80
2023/07/16 04:30:38;;;;;;;6.00;2.20;;;17.50;99.90;;;-144.05;66.65;56887.06;5056427;28;20029;-80
2023/07/16 04:33:04;;;;;;;7.80;2.42;;;17.50;99.90;;;-144.05;66.26;56906.19;5055664;28;20040;-80
2023/07/16 04:35:32;;;;;;;6.57;2.30;;;17.40;99.90;;;-144.05;66.11;56893.44;5038404;28;20367;-79
2023/07/16 04:37:57;;;;;;;9.13;2.10;;;17.40;99.90;;;-144.05;66.22;56906.19;5056177;28;20025;-79
2023/07/16 04:40:23;;;;;;;4.00;1.77;;;17.50;99.90;;;-144.05;66.72;56878.56;5056348;28;20021;-79
2023/07/16 04:42:49;;;;;;;5.18;2.17;;;17.50;99.90;;;-144.05;66.33;56867.94;5037651;28;20029;-82
2023/07/16 04:45:15;;;;;;;6.47;2.15;;;17.50;99.90;;;-144.05;65.94;56899.81;5055372;28;20025;-79
2023/07/16 04:47:41;;;;;;;5.75;1.83;;;17.60;99.90;;;-144.05;65.52;56897.69;5054935;28;20025;-80
2023/07/16 04:50:07;;;;;;;7.35;2.10;;;17.60;99.90;;;-144.05;65.50;56895.56;5055596;28;20063;-81
2023/07/16 04:52:33;;;;;;;4.90;2.22;;;17.60;99.90;;;-144.05;64.72;56880.69;5055920;28;20025;-80
2023/07/16 04:54:58;;;;;;;9.23;1.92;;;17.70;99.90;;;-144.05;64.59;56882.81;5054543;28;20037;-79
2023/07/16 04:57:24;;;;;;;6.15;2.00;;;17.60;99.90;;;-144.05;64.03;56887.06;5057090;28;20033;-78
2023/07/16 04:59:50;;;;;;;9.75;3.33;;;17.70;99.90;;;-144.05;63.60;56880.69;5058863;28;20039;-80
2023/07/16 05:02:17;;;;;;;6.75;2.55;;;17.80;99.90;;;-144.05;62.77;56899.81;5059366;28;20055;-84
2023/07/16 05:04:48;;;;;;;7.57;2.22;;;17.90;99.90;;;-144.05;62.77;56904.06;5055199;28;20058;-80
2023/07/16 05:07:14;;;;;;;5.30;2.20;;;18.00;99.90;;;-144.05;61.79;56891.31;5054536;28;20072;-82
2023/07/16 05:09:41;;;;;;;4.82;2.33;;;18.00;99.90;;;-144.05;62.45;56908.31;5055840;28;20017;-80
2023/07/16 05:12:07;;;;;;;5.78;2.20;;;18.10;99.90;;;-144.05;61.93;56882.81;5037350;28;20495;-82
2023/07/16 05:14:48;;;;;;;4.07;2.20;;;18.10;99.90;;;-144.05;61.79;56933.78;5055116;28;20029;-81
2023/07/16 05:17:14;;;;;;;9.38;2.75;;;18.10;99.90;;;-144.05;61.16;56889.19;5055103;28;20035;-80
2023/07/16 05:19:41;;;;;;;4.80;2.03;;;18.20;99.90;;;-144.05;60.91;56910.44;5036520;28;20026;-80
2023/07/16 05:22:07;;;;;;;7.68;2.17;;;18.30;99.90;;;-144.05;59.99;56897.69;5053094;28;20036;-81
2023/07/16 05:24:33;;;;;;;6.90;2.35;;;18.40;99.90;;;-144.05;59.72;56897.69;5055699;28;20393;-79
2023/07/16 05:26:59;;;;;;;4.68;2.47;;;18.40;99.90;;;-144.05;58.91;56887.06;5068607;28;20059;-80
2023/07/16 05:29:25;;;;;;;6.22;2.60;;;18.60;99.90;;;-144.05;58.24;56895.56;5059182;28;20111;-79
2023/07/16 05:31:50;;;;;;;10.93;2.90;;;18.60;99.90;;;-144.05;58.53;56901.94;5077174;28;20074;-80
2023/07/16 05:34:16;;;;;;;7.00;2.47;;;18.70;99.90;;;-144.05;58.53;56912.56;5056353;28;20442;-82
2023/07/16 05:36:46;;;;;;;6.53;2.85;;;18.70;99.90;;;-144.05;58.35;56906.19;5074639;28;20067;-80
2023/07/16 05:39:13;;;;;;;6.35;2.30;;;18.70;99.90;;;-144.05;58.23;56889.19;5082588;28;20028;-80
2023/07/16 05:41:42;;;;;;;5.88;2.35;;;18.70;99.90;;;-144.05;58.50;56925.28;5060631;28;20036;-83
2023/07/16 05:44:08;;;;;;;7.72;2.40;;;18.80;99.90;;;-144.05;57.63;56908.31;5077032;28;20024;-82
2023/07/16 05:46:34;;;;;;;7.60;2.40;;;19.00;99.90;;;-144.05;57.07;56891.31;5077085;28;20052;-83
2023/07/16 05:49:00;;;;;;;5.57;2.40;;;19.00;99.90;;;-144.05;57.70;56921.06;5074823;28;20028;-84
2023/07/16 05:51:26;;;;;;;11.45;2.65;;;19.10;99.90;;;-144.05;57.87;56918.94;5057803;28;20410;-82
2023/07/16 05:53:52;;;;;;;5.65;2.38;;;19.20;99.90;;;-144.05;55.97;56904.06;5073502;28;20028;-80
2023/07/16 05:56:18;;;;;;;4.78;2.60;;;19.20;99.90;;;-144.05;56.21;56925.28;5055366;28;20028;-80
2023/07/16 05:58:44;;;;;;;7.47;2.28;;;19.40;99.90;;;-144.05;56.76;56912.56;5072838;28;20044;-80
2023/07/16 06:01:10;;;;;;;7.20;2.95;;;19.50;99.90;;;-144.05;55.92;56899.81;5055286;28;20028;-79
2023/07/16 06:03:36;;;;;;;5.47;2.30;;;19.50;99.90;;;-144.05;55.32;56916.81;5072915;28;20111;-80
2023/07/16 06:06:02;;;;;;;7.72;2.40;;;19.50;99.90;;;-144.05;56.26;56901.94;5055105;28;20025;-81
2023/07/16 06:08:28;;;;;;;8.73;3.10;;;19.30;99.90;;;-144.05;54.97;56933.78;5054674;28;20033;-82
2023/07/16 06:10:54;;;;;;;9.75;3.20;;;19.40;99.90;;;-144.05;54.23;56918.94;5072822;28;20218;-82
2023/07/16 06:13:20;;;;;;;9.02;2.97;;;19.50;99.90;;;-144.05;53.95;56916.81;5072745;28;20028;-82
2023/07/16 06:15:47;;;;;;;5.63;2.60;;;19.60;99.90;;;-144.05;53.42;56895.56;5072801;28;20021;-84
2023/07/16 06:18:13;;;;;;;7.57;2.65;;;19.80;99.90;;;-144.05;52.64;56918.94;5071031;28;20024;-81
2023/07/16 06:20:44;;;;;;;6.22;2.90;;;20.00;99.90;;;-144.05;52.08;56908.31;5054366;28;20085;-84
2023/07/16 06:23:11;;;;;;;10.23;2.90;;;19.80;99.90;;;-144.05;53.47;56908.31;5054952;28;20029;-83
2023/07/16 06:25:37;;;;;;;6.68;3.15;;;19.70;99.90;;;-144.05;53.43;56916.81;5072411;28;20017;-82
2023/07/16 06:28:04;;;;;;;11.63;3.55;;;19.70;99.90;;;-144.05;53.04;56910.44;5051224;28;20037;-82
2023/07/16 06:30:32;;;;;;;7.90;3.47;;;19.80;99.90;;;-144.05;53.26;56912.56;5052866;28;20056;-82
2023/07/16 06:32:59;;;;;;;8.88;3.13;;;19.80;99.90;;;-144.05;52.36;56914.69;5051483;28;20380;-85
2023/07/16 06:35:25;;;;;;;7.53;3.42;;;19.90;99.90;;;-144.05;52.63;56923.19;5052805;28;20329;-82
2023/07/16 06:37:50;;;;;;;10.30;2.92;;;19.90;99.90;;;-144.05;52.62;56897.69;5052919;28;20108;-83
2023/07/16 06:40:16;;;;;;;6.90;3.33;;;19.60;99.90;;;-144.05;52.84;56906.19;5053225;28;20029;-84
2023/07/16 06:42:42;;;;;;;10.98;3.63;;;19.60;99.90;;;-144.05;52.53;56912.56;5053037;28;20028;-82
2023/07/16 06:45:10;;;;;;;6.75;3.30;;;19.70;99.90;;;-144.05;52.07;56912.56;5052984;28;20507;-82
2023/07/16 06:47:36;;;;;;;8.38;3.50;;;19.70;99.90;;;-144.05;51.47;56931.66;5035042;28;20424;-83
2023/07/16 06:50:02;;;;;;;8.35;4.00;;;19.80;99.90;;;-144.05;52.02;56914.69;5050928;28;20024;-81
2023/07/16 06:52:28;;;;;;;10.07;3.80;;;19.80;99.90;;;-144.05;52.38;56906.19;5053460;28;20048;-82
2023/07/16 06:54:55;;;;;;;9.57;3.85;;;19.70;99.90;;;-144.05;52.68;56889.19;5052793;28;20040;-84
2023/07/16 06:57:25;;;;;;;6.07;3.30;;;19.70;99.90;;;-144.05;51.93;56927.41;5051823;28;20032;-82
2023/07/16 06:59:51;;;;;;;11.95;3.67;;;19.90;99.90;;;-144.05;51.28;56912.56;5053221;28;20035;-84
2023/07/16 07:02:17;;;;;;;10.00;3.58;;;19.90;99.90;;;-144.05;50.86;56891.31;5035150;28;20033;-83
2023/07/16 07:04:43;;;;;;;7.85;3.67;;;19.90;99.90;;;-144.05;51.27;56895.56;5035071;28;20025;-84
2023/07/16 07:07:09;;;;;;;11.05;3.80;;;20.10;99.90;;;-144.05;49.30;56942.28;5052089;28;20029;-85
2023/07/16 07:09:35;;;;;;;11.57;3.50;;;20.50;99.90;;;-144.05;49.76;56889.19;5051295;28;20021;-84
2023/07/16 07:12:02;;;;;;;9.75;4.00;;;20.80;99.90;;;-144.05;49.67;56918.94;5052299;28;20041;-84
2023/07/16 07:14:27;;;;;;;8.05;3.78;;;20.60;99.90;;;-144.05;49.36;56940.16;5034676;28;20033;-82
2023/07/16 07:16:53;;;;;;;9.60;3.72;;;20.50;99.90;;;-144.05;49.28;56897.69;5035201;28;20115;-83
2023/07/16 07:19:19;;;;;;;6.47;3.22;;;20.50;99.90;;;-144.05;47.91;56944.41;5035132;28;20114;-82
2023/07/16 07:21:45;;;;;;;11.90;3.90;;;20.80;99.90;;;-144.05;47.52;56916.81;5051123;28;20121;-84
2023/07/16 07:24:12;;;;;;;13.13;4.15;;;21.10;99.90;;;-144.05;46.71;56942.28;5052535;28;20557;-84
2023/07/16 07:26:38;;;;;;;7.68;3.90;;;21.20;99.90;;;-144.05;46.34;56933.78;5059995;28;20025;-85
2023/07/16 07:29:04;;;;;;;7.85;3.65;;;21.30;99.90;;;-144.05;46.87;56935.91;5072764;28;20021;-85
2023/07/16 07:31:30;;;;;;;7.55;3.63;;;21.10;99.90;;;-144.05;46.32;56918.94;5073460;28;20491;-84
2023/07/16 07:33:57;;;;;;;11.82;4.38;;;21.30;99.90;;;-144.05;47.21;56914.69;5073549;28;20029;-83
2023/07/16 07:36:23;;;;;;;8.88;4.03;;;20.80;99.90;;;-144.05;46.86;56933.78;5073805;28;20085;-82
2023/07/16 07:38:49;;;;;;;10.23;4.32;;;20.90;99.90;;;-144.05;45.85;56931.66;5073172;28;20028;-82
2023/07/16 07:41:15;;;;;;;11.25;3.60;;;21.20;99.90;;;-144.05;46.11;56910.44;5073685;28;20544;-82
2023/07/16 07:43:41;;;;;;;8.18;3.70;;;21.20;99.90;;;-144.05;45.59;56921.06;5073616;28;20059;-83
2023/07/16 07:46:06;;;;;;;8.60;3.72;;;21.00;99.90;;;-144.05;45.55;56906.19;5073036;28;20047;-85
2023/07/16 07:48:32;;;;;;;9.52;3.47;;;20.90;99.90;;;-144.05;45.68;56935.91;5055085;28;20024;-85
2023/07/16 07:50:58;;;;;;;10.60;3.88;;;21.10;99.90;;;-144.05;45.02;56938.03;5073151;28;20107;-83
2023/07/16 07:53:24;;;;;;;8.38;3.85;;;21.30;99.90;;;-144.05;45.38;56925.28;5073195;28;20068;-84
2023/07/16 07:55:50;;;;;;;8.30;4.18;;;21.40;99.90;;;-144.05;43.62;56974.16;5074050;28;20032;-84
2023/07/16 07:58:15;;;;;;;9.90;3.83;;;21.60;99.90;;;-144.05;43.51;56935.91;5057199;28;20495;-85
2023/07/16 08:00:41;;;;;;;9.50;4.50;;;21.40;99.90;;;-144.05;44.09;56927.41;5059200;28;20067;-84
2023/07/16 08:03:07;;;;;;;9.05;3.30;;;21.40;99.90;;;-144.05;44.22;56927.41;5080278;28;20048;-83
2023/07/16 08:05:33;;;;;;;8.57;3.83;;;21.60;99.90;;;-144.05;43.34;56959.28;5085621;28;20020;-85
2023/07/16 08:07:59;;;;;;;5.28;3.50;;;22.10;99.90;;;-144.05;41.10;56952.91;5082586;28;20067;-82
2023/07/16 08:10:25;;;;;;;9.43;3.63;;;22.60;99.90;;;-144.05;39.56;56959.28;5078798;28;20028;-81
2023/07/16 08:12:51;;;;;;;7.45;3.75;;;22.70;99.90;;;-144.05;39.24;56944.41;5059173;28;20091;-85
2023/07/16 08:15:18;;;;;;;10.45;3.80;;;22.60;99.90;;;-144.05;40.20;56959.28;5062766;28;20052;-83
2023/07/16 08:17:45;;;;;;;8.27;4.03;;;22.50;99.90;;;-144.05;40.91;56929.53;5087501;28;20031;-83
2023/07/16 08:20:12;;;;;;;9.85;3.92;;;22.20;99.90;;;-144.05;39.38;56989.00;5081750;28;20455;-83
2023/07/16 08:22:39;;;;;;;8.13;3.78;;;22.20;99.90;;;-144.05;39.75;56914.69;5084516;28;20119;-83
2023/07/16 08:25:07;;;;;;;9.38;3.80;;;22.30;99.90;;;-144.05;38.27;56959.28;5084971;28;20028;-83
2023/07/16 08:27:34;;;;;;;7.57;3.45;;;22.40;99.90;;;-144.05;39.10;56961.41;5066098;28;20028;-80
2023/07/16 08:30:00;;;;;;;6.45;3.70;;;22.50;99.90;;;-144.05;39.12;56944.41;5056235;28;20029;-80
2023/07/16 08:32:26;;;;;;;11.07;3.85;;;22.10;99.90;;;-144.05;39.05;56955.03;5055990;28;20161;-79
2023/07/16 08:34:52;;;;;;;11.98;4.22;;;22.40;99.90;;;-144.05;38.34;56957.16;5056048;28;20040;-80
2023/07/16 08:37:18;;;;;;;9.82;3.45;;;22.80;99.90;;;-144.05;37.68;56961.41;5056047;28;20025;-82
2023/07/16 08:39:44;;;;;;;7.47;3.80;;;23.30;99.90;;;-144.05;37.60;56976.28;5055493;28;20040;-81
2023/07/16 08:42:13;;;;;;;8.48;3.80;;;22.90;99.90;;;-144.05;38.76;56982.66;5054839;28;20044;-83
2023/07/16 08:44:40;;;;;;;8.63;4.03;;;22.60;99.90;;;-144.05;38.08;56980.53;5054780;28;20025;-81
2023/07/16 08:47:09;;;;;;;12.32;4.22;;;22.20;99.90;;;-144.05;38.50;56935.91;5056510;28;20029;-82
2023/07/16 08:49:35;;;;;;;9.55;3.90;;;22.20;99.90;;;-144.05;38.48;56940.16;5067737;28;20044;-83
2023/07/16 08:52:02;;;;;;;8.23;3.55;;;22.60;99.90;;;-144.05;38.13;56942.28;5040227;28;20025;-84
2023/07/16 08:54:28;;;;;;;11.50;4.20;;;22.90;99.90;;;-144.05;37.68;56944.41;5056662;28;20029;-82
2023/07/16 08:56:57;;;;;;;7.85;3.58;;;23.30;99.90;;;-144.05;38.03;56948.66;5056784;28;20043;-81
2023/07/16 08:59:23;;;;;;;8.73;4.03;;;23.30;99.90;;;-144.05;36.74;56972.03;5055216;28;20055;-82
2023/07/16 09:01:49;;;;;;;9.02;4.00;;;23.60;99.80;;;-144.05;36.70;56978.41;5055872;28;20500;-83
2023/07/16 09:04:16;;;;;;;8.80;3.50;;;23.80;99.90;;;-144.05;35.81;56997.50;5038406;28;20036;-84
2023/07/16 09:06:42;;;;;;;7.13;3.65;;;24.10;99.90;;;-144.05;35.54;56952.91;5053989;28;20029;-83
2023/07/16 09:09:20;;;;;;;7.38;3.80;;;23.80;97.60;;;-144.05;37.19;56972.03;5055249;28;20060;-83
2023/07/16 09:11:48;;;;;;;7.30;3.65;;;23.50;99.90;;;-144.05;36.58;56991.13;5054341;28;20056;-81
2023/07/16 09:14:21;;;;;;;7.47;3.10;;;23.50;99.10;;;-144.05;37.11;56982.66;5037088;28;20036;-83
2023/07/16 09:16:52;;;;;;;7.15;3.50;;;23.30;99.90;;;-144.05;37.80;56965.66;5055372;28;20060;-85
2023/07/16 09:19:18;;;;;;;6.55;3.67;;;23.00;99.90;;;-144.05;37.42;56984.78;5053749;28;20060;-81
2023/07/16 09:21:51;;;;;;;8.85;3.60;;;23.30;99.90;;;-144.05;35.94;56965.66;5054934;28;20056;-82
2023/07/16 09:24:19;;;;;;;7.57;4.30;;;24.00;98.80;;;-144.05;36.43;57008.13;5037030;28;20507;-83
2023/07/16 09:26:57;;;;;;;6.13;2.85;;;24.30;99.80;;;-144.05;34.31;57016.63;5063816;28;20017;-83
2023/07/16 09:29:27;;;;;;;5.63;3.25;;;24.30;96.10;;;-144.05;36.36;56986.91;5074219;28;20070;-82
2023/07/16 09:32:02;;;;;;;7.88;3.72;;;23.90;97.60;;;-144.05;36.91;56963.53;5057323;28;20098;-82
2023/07/16 09:34:29;;;;;;;6.97;3.47;;;23.60;97.30;;;-144.05;35.89;56965.66;5057415;28;20032;-80
2023/07/16 09:36:58;;;;;;;6.50;3.25;;;23.60;96.60;;;-144.05;35.35;56980.53;5075172;28;20467;-82
2023/07/16 09:39:27;;;;;;;6.30;3.30;;;23.80;96.90;;;-144.05;35.33;56972.03;5057184;28;20043;-81
2023/07/16 09:41:53;;;;;;;7.10;3.15;;;24.20;96.60;;;-144.05;34.29;56978.41;5075124;28;20036;-82
2023/07/16 09:44:20;;;;;;;6.00;2.92;;;24.30;94.70;;;-144.05;35.85;56986.91;5074077;28;20024;-80
2023/07/16 09:46:47;;;;;;;5.70;3.20;;;23.70;95.50;;;-144.05;37.06;56955.03;5075528;28;20551;-83
2023/07/16 09:49:15;;;;;;;6.20;3.03;;;23.20;96.50;;;-144.05;35.95;56969.91;5075807;28;20066;-82
2023/07/16 09:51:45;;;;;;;4.90;2.65;;;23.50;96.50;;;-144.05;36.44;56976.28;5057598;28;20488;-83
2023/07/16 09:54:17;;;;;;;6.63;3.53;;;23.20;96.60;;;-144.05;37.16;56950.78;5075945;28;20036;-80
2023/07/16 09:57:00;;;;;;;6.00;3.30;;;23.40;98.40;;;-144.05;36.00;57012.38;5057793;28;20028;-81
2023/07/16 09:59:32;;;;;;;6.53;2.78;;;23.90;96.80;;;-144.05;34.83;56991.13;5075049;28;20087;-83
2023/07/16 10:01:58;;;;;;;7.97;3.17;;;24.20;95.30;;;-144.05;34.25;56976.28;5057123;28;20492;-82
2023/07/16 10:04:24;;;;;;;5.97;2.95;;;24.30;94.00;;;-144.05;34.15;57003.88;5075328;28;20035;-83
2023/07/16 10:07:01;;;;;;;7.05;2.97;;;23.70;93.50;;;-144.05;35.97;56967.78;5058073;28;20495;-80